Ana Sayfa
METAR-TAF:

METAR-TAF

Havaalanları :

Lake Charles, Louisiana, Amerika Birleşik Devletleri

Enlem: 30-13N, Boylam: 093-09W, yükseklik: 4 m

Güncel hava durumu gözlemi

Rapor saat 19:55 UTC de 1 saat ve 15 dakika önce yapıldı.
Rüzgar güneydoğudan 8 kt
Sıcaklık 34°C
Nem 47%
Basınç 1012 hPa
Görüş mesafesi: 16.1 km
3900 ft yükseklikte parçalı çok bulutlu

METAR: KCWF 161955Z 13008KT 10SM BKN039 34/21 A2987

Saat: 16:10 (21:10 UTC)


TAF: eksik

4.000'den fazla havaalanı için hava durumu gözlemleri ve tahminleri (METAR ve TAF raporları).

Kullanılabilir istasyonlar harita üzerinde sarı ve kırmızı noktalarla gösterilir.

İstasyonun adını görmek için fareyi noktanın üzerinde gezdirin.

Sonrasında hava gözlem ve tahminlerini görmek için tıklayın.

Haritayı değiştirmek için: yaklaştırmak için siyah artı işaretli yeşil düğmeye ve uzaklaştırmak için de eksi işaretli düğmeye hızla tıklayın; bitişik haritalar için yeşil okları kullanın.


METAR-TAF: